createdAt,value
2023-10-26T00:00:06.555Z,0.50
2023-10-26T00:02:52.962Z,0.60
2023-10-26T00:05:38.867Z,0.50
2023-10-26T00:08:24.072Z,0.57
2023-10-26T00:11:09.552Z,0.47
2023-10-26T00:13:54.897Z,0.50
2023-10-26T00:16:40.402Z,0.50
2023-10-26T00:19:25.779Z,0.60
2023-10-26T00:22:11.164Z,0.60
2023-10-26T00:24:56.557Z,0.70
2023-10-26T00:27:42.277Z,0.60
2023-10-26T00:30:27.844Z,0.70
2023-10-26T00:33:13.486Z,0.93
2023-10-26T00:35:58.714Z,0.70
2023-10-26T00:38:44.255Z,0.70
2023-10-26T00:41:29.625Z,0.80
2023-10-26T00:44:15.153Z,0.80
2023-10-26T00:47:01.704Z,0.70
2023-10-26T00:49:47.480Z,0.70
2023-10-26T00:52:33.832Z,0.70
2023-10-26T00:55:19.468Z,0.68
2023-10-26T00:58:05.301Z,0.57
2023-10-26T01:00:51.345Z,0.75
2023-10-26T01:03:38.327Z,0.88
2023-10-26T01:06:24.621Z,0.80
2023-10-26T01:09:10.123Z,0.70
2023-10-26T01:11:55.459Z,1.10
2023-10-26T01:14:40.876Z,0.90
2023-10-26T01:17:26.193Z,1.10
2023-10-26T01:20:18.587Z,0.90
2023-10-26T01:23:04.626Z,1.60
2023-10-26T01:25:55.071Z,2.00
2023-10-26T01:28:40.827Z,2.20
2023-10-26T01:31:26.288Z,2.35
2023-10-26T01:34:11.942Z,1.90
2023-10-26T01:36:57.254Z,2.45
2023-10-26T01:39:42.689Z,2.55
2023-10-26T01:42:28.329Z,2.72
2023-10-26T01:45:14.065Z,2.78
2023-10-26T01:48:04.230Z,2.17
2023-10-26T01:50:51.414Z,3.38
2023-10-26T01:53:36.762Z,2.20
2023-10-26T01:56:22.290Z,1.83
2023-10-26T01:59:07.747Z,2.22
2023-10-26T02:01:53.277Z,1.30
2023-10-26T02:04:38.784Z,1.30
2023-10-26T02:07:24.022Z,1.00
2023-10-26T02:10:13.721Z,0.80
2023-10-26T02:12:59.619Z,0.70
2023-10-26T02:15:44.610Z,0.80
2023-10-26T02:18:30.592Z,0.80
2023-10-26T02:21:16.165Z,0.40
2023-10-26T02:24:01.483Z,0.50
2023-10-26T02:26:46.987Z,0.40
2023-10-26T02:29:32.312Z,0.85
2023-10-26T02:32:17.789Z,0.57
2023-10-26T02:35:03.246Z,0.43
2023-10-26T02:37:49.050Z,0.50
2023-10-26T02:40:37.652Z,0.40
2023-10-26T02:43:23.107Z,0.50
2023-10-26T02:46:09.803Z,0.70
2023-10-26T02:48:57.109Z,0.60
2023-10-26T02:51:42.547Z,0.65
2023-10-26T02:54:28.632Z,0.60
2023-10-26T02:57:16.876Z,0.60
2023-10-26T03:00:01.953Z,0.70
2023-10-26T03:02:47.735Z,0.60
2023-10-26T03:05:34.227Z,0.60
2023-10-26T03:08:20.178Z,0.75
2023-10-26T03:11:05.277Z,0.90
2023-10-26T03:13:50.810Z,0.70
2023-10-26T03:16:37.069Z,0.60
2023-10-26T03:19:23.929Z,1.10
2023-10-26T03:22:12.806Z,0.80
2023-10-26T03:24:58.453Z,1.00
2023-10-26T03:27:44.121Z,1.02
2023-10-26T03:30:29.686Z,0.93
2023-10-26T03:33:15.253Z,0.80
2023-10-26T03:36:00.680Z,0.80
2023-10-26T03:38:47.420Z,0.93
2023-10-26T03:41:32.699Z,1.00
2023-10-26T03:44:17.946Z,0.95
2023-10-26T03:47:03.733Z,0.90
2023-10-26T03:49:53.001Z,1.15
2023-10-26T03:52:38.451Z,0.90
2023-10-26T03:55:23.886Z,1.25
2023-10-26T03:58:09.535Z,1.20
2023-10-26T04:00:54.675Z,1.17
2023-10-26T04:03:40.419Z,1.17
2023-10-26T04:06:25.972Z,1.20
2023-10-26T04:09:11.567Z,1.23
2023-10-26T04:11:56.786Z,1.10
2023-10-26T04:14:42.388Z,1.25
2023-10-26T04:17:28.450Z,1.25
2023-10-26T04:20:14.468Z,1.50
2023-10-26T04:23:00.100Z,1.33
2023-10-26T04:25:54.606Z,1.20
2023-10-26T04:28:50.813Z,1.30
2023-10-26T04:31:37.851Z,1.08
2023-10-26T04:34:23.941Z,1.23
2023-10-26T04:37:09.206Z,1.27
2023-10-26T04:39:54.743Z,1.20
2023-10-26T04:42:40.261Z,1.15
2023-10-26T04:45:25.764Z,0.82
2023-10-26T04:48:11.375Z,1.30
2023-10-26T04:50:57.456Z,1.30
2023-10-26T04:53:42.920Z,1.30
2023-10-26T04:56:28.633Z,1.08
2023-10-26T04:59:14.133Z,1.42
2023-10-26T05:01:59.742Z,1.08
2023-10-26T05:04:45.715Z,1.30
2023-10-26T05:07:32.038Z,1.08
2023-10-26T05:10:17.805Z,1.23
2023-10-26T05:13:04.511Z,1.20
2023-10-26T05:15:49.958Z,0.70
2023-10-26T05:18:35.480Z,1.20
2023-10-26T05:21:20.835Z,1.30
2023-10-26T05:24:06.562Z,1.00
2023-10-26T05:26:51.953Z,1.10
2023-10-26T05:29:37.509Z,1.25
2023-10-26T05:32:22.894Z,1.30
2023-10-26T05:35:08.502Z,1.38
2023-10-26T05:37:54.166Z,1.02
2023-10-26T05:40:39.507Z,1.00
2023-10-26T05:43:25.097Z,1.27
2023-10-26T05:46:10.732Z,1.17
2023-10-26T05:48:55.997Z,1.30
2023-10-26T05:51:41.556Z,1.10
2023-10-26T05:54:27.194Z,1.30
2023-10-26T05:57:12.634Z,1.50
2023-10-26T05:59:58.062Z,1.45
2023-10-26T06:02:43.523Z,1.30
2023-10-26T06:05:28.965Z,1.45
2023-10-26T06:08:14.781Z,1.45
2023-10-26T06:11:00.445Z,1.40
2023-10-26T06:13:46.832Z,1.50
2023-10-26T06:16:34.071Z,1.50
2023-10-26T06:19:19.408Z,1.70
2023-10-26T06:22:05.137Z,1.70
2023-10-26T06:24:50.277Z,1.80
2023-10-26T06:27:35.714Z,1.30
2023-10-26T06:30:21.247Z,1.35
2023-10-26T06:33:06.746Z,1.50
2023-10-26T06:35:52.109Z,1.77
2023-10-26T06:38:39.262Z,2.30
2023-10-26T06:41:24.784Z,1.92
2023-10-26T06:44:10.377Z,2.00
2023-10-26T06:46:55.891Z,2.50
2023-10-26T06:49:42.490Z,2.03
2023-10-26T06:52:28.044Z,2.33
2023-10-26T06:55:29.991Z,2.60
2023-10-26T06:58:16.162Z,2.20
2023-10-26T07:01:20.421Z,2.38
2023-10-26T07:04:07.370Z,2.60
2023-10-26T07:06:52.761Z,2.60
2023-10-26T07:09:38.260Z,2.47
2023-10-26T07:12:23.764Z,2.40
2023-10-26T07:15:09.664Z,2.90
2023-10-26T07:17:55.635Z,2.90
2023-10-26T07:20:40.977Z,3.85
2023-10-26T07:23:27.020Z,3.10
2023-10-26T07:26:17.409Z,3.42
2023-10-26T07:29:02.882Z,3.40
2023-10-26T07:31:51.025Z,3.58
2023-10-26T07:34:36.391Z,3.35
2023-10-26T07:37:21.878Z,3.60
2023-10-26T07:40:28.938Z,3.35
2023-10-26T07:43:13.472Z,3.30
2023-10-26T07:45:59.044Z,3.30
2023-10-26T07:48:44.694Z,4.07
2023-10-26T07:51:30.490Z,3.90
2023-10-26T07:54:15.520Z,3.50
2023-10-26T07:57:01.018Z,4.22
2023-10-26T07:59:46.438Z,3.45
2023-10-26T08:02:34.532Z,3.50
2023-10-26T08:05:21.127Z,3.33
2023-10-26T08:08:06.672Z,3.78
2023-10-26T08:10:52.150Z,3.63
2023-10-26T08:13:37.955Z,3.78
2023-10-26T08:16:43.004Z,3.40
2023-10-26T08:19:28.968Z,3.22
2023-10-26T08:22:14.604Z,3.40
2023-10-26T08:25:00.484Z,3.10
2023-10-26T08:27:46.490Z,3.10
2023-10-26T08:30:31.953Z,3.22
2023-10-26T08:33:17.538Z,3.90
2023-10-26T08:36:05.373Z,2.80
2023-10-26T08:38:50.620Z,3.83
2023-10-26T08:41:36.504Z,3.30
2023-10-26T08:44:21.985Z,3.85
2023-10-26T08:47:09.469Z,4.22
2023-10-26T08:50:12.312Z,3.75
2023-10-26T08:53:00.833Z,4.32
2023-10-26T08:55:49.917Z,3.70
2023-10-26T08:58:35.148Z,3.78
2023-10-26T09:01:20.508Z,3.72
2023-10-26T09:04:10.113Z,4.05
2023-10-26T09:06:55.329Z,3.90
2023-10-26T09:09:45.367Z,3.72
2023-10-26T09:12:30.928Z,3.90
2023-10-26T09:15:16.443Z,3.08
2023-10-26T09:18:10.322Z,3.72
2023-10-26T09:21:06.028Z,4.30
2023-10-26T09:23:51.219Z,4.65
2023-10-26T09:26:40.739Z,3.88
2023-10-26T09:29:39.040Z,4.00
2023-10-26T09:32:33.229Z,4.00
2023-10-26T09:35:35.457Z,3.58
2023-10-26T09:38:37.341Z,3.45
2023-10-26T09:41:22.908Z,3.20
2023-10-26T09:44:08.329Z,3.50
2023-10-26T09:46:53.960Z,3.45
2023-10-26T09:49:39.391Z,3.38
2023-10-26T09:52:24.564Z,3.78
2023-10-26T09:55:12.164Z,3.53
2023-10-26T09:58:04.501Z,2.70
2023-10-26T10:03:45.266Z,3.50
2023-10-26T10:06:53.864Z,3.88
2023-10-26T10:10:01.968Z,3.20
2023-10-26T10:12:53.418Z,3.42
2023-10-26T10:15:43.197Z,4.55
2023-10-26T10:18:28.753Z,3.80
2023-10-26T10:21:40.495Z,3.67
2023-10-26T10:24:52.654Z,3.83
2023-10-26T10:28:01.651Z,3.78
2023-10-26T10:31:00.267Z,3.20
2023-10-26T10:33:45.955Z,2.85
2023-10-26T10:37:13.514Z,3.15
2023-10-26T10:40:11.161Z,2.47
2023-10-26T10:42:57.463Z,2.55
2023-10-26T10:45:43.140Z,2.22
2023-10-26T10:48:28.505Z,1.90
2023-10-26T10:51:14.021Z,2.13
2023-10-26T10:54:03.226Z,2.03
2023-10-26T10:56:52.086Z,2.45
2023-10-26T10:59:37.835Z,2.50
2023-10-26T11:02:23.152Z,2.15
2023-10-26T11:05:17.588Z,2.00
2023-10-26T11:08:05.497Z,2.10
2023-10-26T11:10:51.248Z,1.88
2023-10-26T11:13:36.680Z,2.13
2023-10-26T11:16:24.222Z,2.17
2023-10-26T11:19:09.858Z,1.92
2023-10-26T11:21:56.682Z,1.90
2023-10-26T11:24:42.961Z,1.70
2023-10-26T11:27:28.575Z,1.73
2023-10-26T11:30:14.068Z,1.92
2023-10-26T11:32:59.572Z,1.70
2023-10-26T11:35:45.672Z,1.70
2023-10-26T11:38:32.284Z,2.50
2023-10-26T11:41:25.419Z,1.70
2023-10-26T11:44:30.876Z,2.35
2023-10-26T11:47:15.929Z,3.30
2023-10-26T11:50:01.754Z,2.30
2023-10-26T11:52:49.564Z,2.58
2023-10-26T11:55:39.909Z,2.45
2023-10-26T11:58:38.020Z,2.28
2023-10-26T12:01:25.175Z,2.58
2023-10-26T12:04:18.785Z,2.95
2023-10-26T12:07:10.556Z,2.45
2023-10-26T12:10:04.276Z,2.63
2023-10-26T12:13:01.416Z,2.40
2023-10-26T12:15:50.691Z,2.50
2023-10-26T12:18:40.528Z,2.08
2023-10-26T12:21:44.621Z,3.08
2023-10-26T12:24:35.695Z,2.83
2023-10-26T12:27:26.804Z,2.53
2023-10-26T12:30:13.951Z,3.03
2023-10-26T12:33:01.093Z,3.28
2023-10-26T12:35:51.958Z,3.22
2023-10-26T12:38:39.323Z,3.92
2023-10-26T12:41:34.254Z,3.80
2023-10-26T12:44:22.216Z,3.90
2023-10-26T12:47:08.069Z,3.95
2023-10-26T12:49:53.458Z,3.85
2023-10-26T12:52:38.898Z,3.88
2023-10-26T12:55:25.224Z,3.78
2023-10-26T12:58:10.529Z,3.60
2023-10-26T13:00:56.094Z,4.22
2023-10-26T13:03:41.567Z,3.83
2023-10-26T13:06:26.918Z,4.35
2023-10-26T13:09:12.670Z,4.43
2023-10-26T13:11:57.953Z,4.68
2023-10-26T13:14:43.784Z,4.25
2023-10-26T13:17:29.573Z,4.07
2023-10-26T13:20:15.098Z,3.85
2023-10-26T13:23:00.676Z,4.45
2023-10-26T13:25:46.312Z,4.05
2023-10-26T13:28:31.759Z,4.20
2023-10-26T13:31:17.773Z,4.07
2023-10-26T13:34:03.972Z,4.15
2023-10-26T13:36:49.566Z,3.47
2023-10-26T13:39:35.355Z,5.28
2023-10-26T13:42:21.719Z,5.72
2023-10-26T13:45:07.372Z,5.43
2023-10-26T13:47:52.859Z,4.57
2023-10-26T13:50:40.565Z,4.43
2023-10-26T13:53:26.235Z,4.80
2023-10-26T13:56:11.798Z,4.68
2023-10-26T13:58:57.325Z,4.68
2023-10-26T14:01:42.795Z,4.65
2023-10-26T14:04:28.354Z,4.53
2023-10-26T14:07:13.687Z,4.40
2023-10-26T14:09:59.220Z,4.57
2023-10-26T14:12:44.887Z,5.65
2023-10-26T14:15:30.808Z,4.63
2023-10-26T14:18:16.385Z,4.22
2023-10-26T14:21:01.791Z,3.83
2023-10-26T14:23:47.409Z,3.10
2023-10-26T14:26:32.818Z,3.50
2023-10-26T14:29:18.275Z,3.28
2023-10-26T14:32:04.192Z,2.90
2023-10-26T14:34:49.415Z,3.25
2023-10-26T14:37:34.902Z,3.10
2023-10-26T14:40:20.574Z,3.83
2023-10-26T14:43:06.088Z,4.75
2023-10-26T14:45:52.617Z,6.97
2023-10-26T14:48:38.599Z,5.00
2023-10-26T14:51:27.824Z,4.63
2023-10-26T14:54:15.832Z,4.20
2023-10-26T14:57:01.931Z,4.80
2023-10-26T14:59:46.976Z,3.97
2023-10-26T15:02:32.588Z,3.38
2023-10-26T15:05:18.982Z,2.80
2023-10-26T15:08:04.923Z,2.92
2023-10-26T15:10:51.284Z,2.28
2023-10-26T15:13:37.361Z,1.65
2023-10-26T15:16:23.117Z,1.52
2023-10-26T15:19:08.899Z,1.98
2023-10-26T15:21:55.590Z,1.98
2023-10-26T15:24:42.145Z,3.50
2023-10-26T15:27:27.740Z,1.70
2023-10-26T15:30:13.631Z,2.28
2023-10-26T15:32:58.862Z,2.10
2023-10-26T15:35:45.745Z,2.03
2023-10-26T15:38:31.230Z,2.33
2023-10-26T15:41:16.905Z,2.00
2023-10-26T15:44:08.596Z,2.15
2023-10-26T15:46:54.111Z,3.40
2023-10-26T15:49:40.136Z,2.75
2023-10-26T15:52:25.507Z,2.30
2023-10-26T15:55:11.029Z,2.22
2023-10-26T15:57:56.373Z,2.10
2023-10-26T16:00:41.970Z,2.35
2023-10-26T16:03:30.728Z,2.38
2023-10-26T16:06:16.630Z,1.85
2023-10-26T16:09:02.050Z,2.17
2023-10-26T16:11:47.885Z,2.20
2023-10-26T16:14:33.696Z,2.33
2023-10-26T16:17:19.103Z,3.20
2023-10-26T16:20:05.191Z,3.63
2023-10-26T16:22:50.725Z,4.63
2023-10-26T16:25:36.147Z,3.90
2023-10-26T16:28:21.391Z,4.53
2023-10-26T16:31:06.790Z,3.80
2023-10-26T16:33:52.216Z,5.60
2023-10-26T16:36:37.777Z,5.72
2023-10-26T16:39:24.180Z,3.88
2023-10-26T16:42:09.252Z,4.38
2023-10-26T16:44:54.774Z,3.50
2023-10-26T16:47:52.032Z,4.20
2023-10-26T16:50:43.445Z,3.80
2023-10-26T16:53:32.500Z,3.83
2023-10-26T16:56:18.294Z,3.72
2023-10-26T16:59:04.306Z,3.30
2023-10-26T17:01:49.700Z,2.85
2023-10-26T17:04:36.190Z,3.08
2023-10-26T17:07:22.890Z,3.92
2023-10-26T17:10:09.747Z,7.45
2023-10-26T17:12:55.171Z,3.95
2023-10-26T17:15:40.939Z,4.43
2023-10-26T17:18:27.307Z,3.90
2023-10-26T17:21:12.657Z,5.25
2023-10-26T17:24:01.374Z,5.18
2023-10-26T17:26:47.017Z,3.88
2023-10-26T17:29:32.537Z,3.47
2023-10-26T17:32:18.119Z,2.83
2023-10-26T17:35:05.201Z,2.22
2023-10-26T17:37:50.965Z,2.22
2023-10-26T17:40:36.617Z,5.35
2023-10-26T17:43:21.986Z,6.47
2023-10-26T17:46:07.812Z,5.22
2023-10-26T17:48:53.453Z,4.50
2023-10-26T17:51:38.790Z,4.95
2023-10-26T17:54:24.262Z,3.25
2023-10-26T17:57:10.258Z,3.08
2023-10-26T17:59:55.778Z,2.45
2023-10-26T18:02:41.450Z,3.40
2023-10-26T18:05:26.802Z,3.67
2023-10-26T18:08:12.469Z,3.08
2023-10-26T18:10:58.457Z,3.10
2023-10-26T18:13:44.062Z,3.15
2023-10-26T18:16:29.537Z,3.17
2023-10-26T18:19:14.931Z,2.85
2023-10-26T18:22:00.468Z,2.80
2023-10-26T18:24:45.830Z,2.50
2023-10-26T18:27:32.112Z,2.70
2023-10-26T18:30:17.463Z,2.58
2023-10-26T18:33:03.165Z,2.53
2023-10-26T18:35:48.630Z,2.85
2023-10-26T18:38:34.998Z,2.53
2023-10-26T18:41:25.708Z,2.70
2023-10-26T18:44:11.223Z,2.85
2023-10-26T18:46:57.739Z,3.38
2023-10-26T18:49:43.334Z,3.55
2023-10-26T18:52:29.380Z,15.15
2023-10-26T18:55:14.524Z,3.45
2023-10-26T18:58:00.113Z,3.05
2023-10-26T19:00:46.621Z,3.25
2023-10-26T19:03:34.224Z,3.63
2023-10-26T19:06:21.158Z,3.33
2023-10-26T19:09:06.936Z,3.10
2023-10-26T19:11:52.474Z,3.28
2023-10-26T19:14:37.905Z,3.65
2023-10-26T19:17:23.400Z,3.85
2023-10-26T19:20:09.291Z,3.40
2023-10-26T19:22:55.019Z,3.30
2023-10-26T19:25:41.443Z,3.60
2023-10-26T19:28:26.711Z,3.58
2023-10-26T19:31:13.586Z,3.15
2023-10-26T19:33:58.728Z,3.40
2023-10-26T19:36:44.244Z,3.10
2023-10-26T19:39:29.777Z,3.42
2023-10-26T19:42:15.322Z,3.38
2023-10-26T19:45:00.875Z,3.13
2023-10-26T19:47:46.490Z,3.38
2023-10-26T19:50:32.350Z,3.50
2023-10-26T19:53:17.772Z,3.30
2023-10-26T19:56:03.799Z,3.28
2023-10-26T19:58:49.325Z,3.22
2023-10-26T20:01:34.972Z,3.15
2023-10-26T20:04:20.582Z,3.13
2023-10-26T20:07:06.923Z,3.17
2023-10-26T20:09:52.166Z,3.00
2023-10-26T20:12:38.180Z,3.08
2023-10-26T20:15:23.934Z,3.70
2023-10-26T20:18:11.772Z,3.95
2023-10-26T20:20:57.784Z,3.42
2023-10-26T20:23:43.059Z,3.72
2023-10-26T20:26:28.747Z,3.95
2023-10-26T20:29:14.866Z,4.00
2023-10-26T20:32:00.210Z,4.30
2023-10-26T20:34:45.711Z,4.60
2023-10-26T20:37:31.162Z,4.28
2023-10-26T20:40:16.655Z,3.72
2023-10-26T20:43:05.905Z,4.18
2023-10-26T20:45:58.668Z,4.20
2023-10-26T20:48:44.380Z,4.00
2023-10-26T20:51:30.415Z,5.00
2023-10-26T20:54:16.228Z,4.30
2023-10-26T20:57:01.274Z,4.97
2023-10-26T20:59:47.015Z,5.07
2023-10-26T21:02:32.165Z,4.40
2023-10-26T21:05:17.726Z,4.65
2023-10-26T21:08:03.120Z,5.05
2023-10-26T21:10:48.540Z,4.60
2023-10-26T21:13:34.041Z,11.70
2023-10-26T21:16:20.958Z,5.45
2023-10-26T21:19:06.980Z,4.18
2023-10-26T21:21:52.615Z,4.38
2023-10-26T21:24:38.080Z,4.57
2023-10-26T21:27:24.598Z,4.45
2023-10-26T21:30:09.933Z,4.10
2023-10-26T21:32:55.665Z,4.07
2023-10-26T21:35:41.944Z,4.90
2023-10-26T21:38:27.704Z,3.30
2023-10-26T21:41:12.884Z,3.50
2023-10-26T21:43:58.517Z,3.55
2023-10-26T21:46:44.032Z,3.33
2023-10-26T21:49:29.587Z,4.00
2023-10-26T21:52:14.887Z,3.90
2023-10-26T21:55:00.363Z,3.97
2023-10-26T21:57:45.651Z,4.03
2023-10-26T22:00:32.123Z,3.92
2023-10-26T22:03:17.520Z,3.55
2023-10-26T22:06:03.425Z,4.18
2023-10-26T22:08:48.739Z,3.83
2023-10-26T22:11:34.066Z,5.10
2023-10-26T22:14:19.471Z,4.40
2023-10-26T22:17:05.115Z,4.85
2023-10-26T22:19:51.857Z,5.65
2023-10-26T22:22:38.171Z,4.43
2023-10-26T22:25:23.715Z,5.32
2023-10-26T22:28:09.453Z,5.00
2023-10-26T22:30:54.653Z,4.68
2023-10-26T22:33:41.081Z,5.55
2023-10-26T22:36:28.409Z,4.15
2023-10-26T22:39:13.528Z,4.28
2023-10-26T22:41:59.051Z,3.85
2023-10-26T22:44:44.808Z,3.63
2023-10-26T22:47:30.301Z,3.95
2023-10-26T22:50:15.900Z,3.95
2023-10-26T22:53:01.165Z,4.07
2023-10-26T22:55:47.124Z,4.00
2023-10-26T22:58:32.616Z,3.80
2023-10-26T23:01:18.129Z,4.28
2023-10-26T23:04:04.322Z,3.60
2023-10-26T23:06:49.986Z,3.60
2023-10-26T23:09:35.364Z,3.65
2023-10-26T23:12:20.884Z,3.38
2023-10-26T23:15:06.835Z,3.20
2023-10-26T23:17:52.580Z,3.47
2023-10-26T23:20:37.877Z,4.35
2023-10-26T23:23:23.220Z,3.30
2023-10-26T23:26:09.485Z,3.75
2023-10-26T23:28:54.897Z,3.05
2023-10-26T23:31:40.252Z,2.95
2023-10-26T23:34:25.933Z,2.83
2023-10-26T23:37:11.465Z,2.30
2023-10-26T23:39:56.729Z,2.53
2023-10-26T23:42:42.011Z,2.70
2023-10-26T23:45:29.097Z,2.22
2023-10-26T23:48:14.820Z,2.20
2023-10-26T23:51:00.075Z,2.25
2023-10-26T23:53:45.521Z,2.40
2023-10-26T23:56:30.944Z,2.15
2023-10-26T23:59:16.339Z,2.10
